aviador You're here:

KIOW Decoded Metar

IOWA CITY in IA, USA
Report Time2018-07-22 23:52:00
UTC Time2018-07-23 00:00:23
Flight Rules vfr VFR
Wind340° at 08 kt
W.Decomp.*RWY 30: 6.3 kt HW 4.9 kt RCW
RWY 25: 0.3 kt HW 8.0 kt RCW
W.Rank340° ranks 17
Current wind is below 340° avg. (8.5)
Visibility9999 m
Phenomena:N/A
Clouds:Overcast 050 Hf
Expected CloudBase > 2,000 ft AGL from Temp-Dew spread
Ceiling5,000 ft
Temp24°C (ISA +10)
Dew Point19°C (74% RH)
QNH1016 hPa
Density Alt2,034 ft
Elevation650 ft
Report Wrong Elevation
Raw Report
KIOW 222352Z AUTO 34008KT 10SM OVC050 24/19 A2999 RMK AO2 SLP152
T02390189 10256 20233 53000 $=

Extra information for KIOW:More info

Metar Taf Metar & Taf Last 4 Metars F.Rules Stats Wind Profile Meteogram Temp Stats Airport Information Weather charts Add Link Nearby VenuesMetar ALERT Operation Metar Decoded Social comments

AIRNAV info for KIOW